sensor_id;sensor_type;location;lat;lon;timestamp;P1;durP1;ratioP1;P2;durP2;ratioP2
15608;SDS011;64278;45.642;13.756;2023-03-13T00:01:37;2.58;;;2.38;;
15608;SDS011;64278;45.642;13.756;2023-03-13T00:04:05;2.60;;;2.40;;
15608;SDS011;64278;45.642;13.756;2023-03-13T00:06:32;3.53;;;2.75;;
15608;SDS011;64278;45.642;13.756;2023-03-13T00:08:59;3.38;;;2.83;;
15608;SDS011;64278;45.642;13.756;2023-03-13T00:11:26;2.45;;;2.00;;
15608;SDS011;64278;45.642;13.756;2023-03-13T00:13:55;2.40;;;2.20;;
15608;SDS011;64278;45.642;13.756;2023-03-13T00:16:21;2.72;;;2.55;;
15608;SDS011;64278;45.642;13.756;2023-03-13T00:18:48;2.33;;;2.17;;
15608;SDS011;64278;45.642;13.756;2023-03-13T00:21:15;2.17;;;2.00;;
15608;SDS011;64278;45.642;13.756;2023-03-13T00:23:42;2.60;;;2.40;;
15608;SDS011;64278;45.642;13.756;2023-03-13T00:26:09;2.10;;;2.00;;
15608;SDS011;64278;45.642;13.756;2023-03-13T00:28:38;2.35;;;2.15;;
15608;SDS011;64278;45.642;13.756;2023-03-13T00:31:06;2.22;;;2.13;;
15608;SDS011;64278;45.642;13.756;2023-03-13T00:33:37;2.42;;;2.22;;
15608;SDS011;64278;45.642;13.756;2023-03-13T00:36:06;2.65;;;2.10;;
15608;SDS011;64278;45.642;13.756;2023-03-13T00:38:33;2.35;;;2.15;;
15608;SDS011;64278;45.642;13.756;2023-03-13T00:41:03;2.55;;;2.35;;
15608;SDS011;64278;45.642;13.756;2023-03-13T00:43:36;2.50;;;2.30;;
15608;SDS011;64278;45.642;13.756;2023-03-13T00:46:03;2.50;;;2.30;;
15608;SDS011;64278;45.642;13.756;2023-03-13T00:48:29;2.33;;;2.13;;
15608;SDS011;64278;45.642;13.756;2023-03-13T00:50:55;2.10;;;1.90;;
15608;SDS011;64278;45.642;13.756;2023-03-13T00:53:27;2.50;;;2.22;;
15608;SDS011;64278;45.642;13.756;2023-03-13T00:56:09;2.53;;;2.33;;
15608;SDS011;64278;45.642;13.756;2023-03-13T00:58:37;2.45;;;2.25;;
15608;SDS011;64278;45.642;13.756;2023-03-13T01:01:05;2.28;;;2.10;;
15608;SDS011;64278;45.642;13.756;2023-03-13T01:03:31;2.55;;;2.03;;
15608;SDS011;64278;45.642;13.756;2023-03-13T01:05:58;2.92;;;2.63;;
15608;SDS011;64278;45.642;13.756;2023-03-13T01:08:28;2.17;;;2.03;;
15608;SDS011;64278;45.642;13.756;2023-03-13T01:11:01;2.08;;;1.88;;
15608;SDS011;64278;45.642;13.756;2023-03-13T01:13:31;1.90;;;1.80;;
15608;SDS011;64278;45.642;13.756;2023-03-13T01:16:05;2.55;;;2.35;;
15608;SDS011;64278;45.642;13.756;2023-03-13T01:18:32;2.50;;;2.03;;
15608;SDS011;64278;45.642;13.756;2023-03-13T01:20:59;2.45;;;2.25;;
15608;SDS011;64278;45.642;13.756;2023-03-13T01:23:26;2.50;;;2.30;;
15608;SDS011;64278;45.642;13.756;2023-03-13T01:25:53;1.92;;;1.83;;
15608;SDS011;64278;45.642;13.756;2023-03-13T01:28:19;2.17;;;2.03;;
15608;SDS011;64278;45.642;13.756;2023-03-13T01:30:45;2.17;;;1.98;;
15608;SDS011;64278;45.642;13.756;2023-03-13T01:33:11;3.47;;;2.10;;
15608;SDS011;64278;45.642;13.756;2023-03-13T01:35:37;2.75;;;2.28;;
15608;SDS011;64278;45.642;13.756;2023-03-13T01:38:02;2.25;;;2.15;;
15608;SDS011;64278;45.642;13.756;2023-03-13T01:40:28;2.50;;;2.30;;
15608;SDS011;64278;45.642;13.756;2023-03-13T01:42:55;2.25;;;2.15;;
15608;SDS011;64278;45.642;13.756;2023-03-13T01:48:46;2.13;;;1.90;;
15608;SDS011;64278;45.642;13.756;2023-03-13T01:51:15;2.40;;;2.20;;
15608;SDS011;64278;45.642;13.756;2023-03-13T01:56:47;2.50;;;2.30;;
15608;SDS011;64278;45.642;13.756;2023-03-13T01:59:22;2.65;;;2.45;;
15608;SDS011;64278;45.642;13.756;2023-03-13T02:01:50;1.85;;;1.75;;
15608;SDS011;64278;45.642;13.756;2023-03-13T02:04:20;1.85;;;1.75;;
15608;SDS011;64278;45.642;13.756;2023-03-13T02:06:48;2.15;;;1.95;;
15608;SDS011;64278;45.642;13.756;2023-03-13T02:09:20;2.53;;;2.33;;
15608;SDS011;64278;45.642;13.756;2023-03-13T02:11:55;2.65;;;2.45;;
15608;SDS011;64278;45.642;13.756;2023-03-13T02:14:25;2.40;;;2.20;;
15608;SDS011;64278;45.642;13.756;2023-03-13T02:16:54;3.25;;;2.22;;
15608;SDS011;64278;45.642;13.756;2023-03-13T02:19:24;2.40;;;2.20;;
15608;SDS011;64278;45.642;13.756;2023-03-13T02:24:50;2.45;;;2.25;;
15608;SDS011;64278;45.642;13.756;2023-03-13T02:27:59;2.03;;;1.90;;
15608;SDS011;64278;45.642;13.756;2023-03-13T02:30:28;2.40;;;2.20;;
15608;SDS011;64278;45.642;13.756;2023-03-13T02:32:55;2.00;;;1.90;;
15608;SDS011;64278;45.642;13.756;2023-03-13T02:35:21;2.80;;;2.13;;
15608;SDS011;64278;45.642;13.756;2023-03-13T02:37:54;1.98;;;1.88;;
15608;SDS011;64278;45.642;13.756;2023-03-13T02:40:25;2.58;;;2.40;;
15608;SDS011;64278;45.642;13.756;2023-03-13T02:42:54;1.95;;;1.85;;
15608;SDS011;64278;45.642;13.756;2023-03-13T02:45:22;1.92;;;1.77;;
15608;SDS011;64278;45.642;13.756;2023-03-13T02:47:48;2.20;;;2.10;;
15608;SDS011;64278;45.642;13.756;2023-03-13T02:50:14;2.60;;;2.17;;
15608;SDS011;64278;45.642;13.756;2023-03-13T02:52:47;2.50;;;2.30;;
15608;SDS011;64278;45.642;13.756;2023-03-13T02:55:35;2.00;;;1.90;;
15608;SDS011;64278;45.642;13.756;2023-03-13T02:58:04;2.28;;;2.05;;
15608;SDS011;64278;45.642;13.756;2023-03-13T03:00:30;1.90;;;1.80;;
15608;SDS011;64278;45.642;13.756;2023-03-13T03:02:56;2.50;;;2.13;;
15608;SDS011;64278;45.642;13.756;2023-03-13T03:05:21;2.10;;;1.83;;
15608;SDS011;64278;45.642;13.756;2023-03-13T03:07:48;2.58;;;1.98;;
15608;SDS011;64278;45.642;13.756;2023-03-13T03:10:15;1.90;;;1.80;;
15608;SDS011;64278;45.642;13.756;2023-03-13T03:12:41;1.98;;;1.88;;
15608;SDS011;64278;45.642;13.756;2023-03-13T03:15:07;2.10;;;1.90;;
15608;SDS011;64278;45.642;13.756;2023-03-13T03:17:33;1.80;;;1.70;;
15608;SDS011;64278;45.642;13.756;2023-03-13T03:19:59;1.98;;;1.88;;
15608;SDS011;64278;45.642;13.756;2023-03-13T03:22:25;2.15;;;1.98;;
15608;SDS011;64278;45.642;13.756;2023-03-13T03:25:10;2.25;;;2.05;;
15608;SDS011;64278;45.642;13.756;2023-03-13T03:27:36;2.00;;;1.90;;
15608;SDS011;64278;45.642;13.756;2023-03-13T03:30:02;2.10;;;2.00;;
15608;SDS011;64278;45.642;13.756;2023-03-13T03:32:29;2.17;;;1.98;;
15608;SDS011;64278;45.642;13.756;2023-03-13T03:34:55;2.13;;;1.92;;
15608;SDS011;64278;45.642;13.756;2023-03-13T03:37:20;2.30;;;1.85;;
15608;SDS011;64278;45.642;13.756;2023-03-13T03:39:46;1.70;;;1.60;;
15608;SDS011;64278;45.642;13.756;2023-03-13T03:42:11;1.70;;;1.60;;
15608;SDS011;64278;45.642;13.756;2023-03-13T03:44:37;2.10;;;2.00;;
15608;SDS011;64278;45.642;13.756;2023-03-13T03:47:03;2.30;;;2.10;;
15608;SDS011;64278;45.642;13.756;2023-03-13T03:49:28;2.45;;;1.85;;
15608;SDS011;64278;45.642;13.756;2023-03-13T03:51:54;1.70;;;1.60;;
15608;SDS011;64278;45.642;13.756;2023-03-13T03:54:19;2.13;;;1.98;;
15608;SDS011;64278;45.642;13.756;2023-03-13T03:56:45;2.00;;;1.80;;
15608;SDS011;64278;45.642;13.756;2023-03-13T03:59:11;1.75;;;1.65;;
15608;SDS011;64278;45.642;13.756;2023-03-13T04:01:36;1.90;;;1.80;;
15608;SDS011;64278;45.642;13.756;2023-03-13T04:04:02;1.65;;;1.55;;
15608;SDS011;64278;45.642;13.756;2023-03-13T04:06:28;2.25;;;2.15;;
15608;SDS011;64278;45.642;13.756;2023-03-13T04:08:54;2.10;;;1.90;;
15608;SDS011;64278;45.642;13.756;2023-03-13T04:11:20;2.28;;;1.75;;
15608;SDS011;64278;45.642;13.756;2023-03-13T04:13:46;2.15;;;1.95;;
15608;SDS011;64278;45.642;13.756;2023-03-13T04:16:11;1.80;;;1.70;;
15608;SDS011;64278;45.642;13.756;2023-03-13T04:18:37;2.10;;;1.90;;
15608;SDS011;64278;45.642;13.756;2023-03-13T04:21:03;2.10;;;2.00;;
15608;SDS011;64278;45.642;13.756;2023-03-13T04:23:30;1.75;;;1.65;;
15608;SDS011;64278;45.642;13.756;2023-03-13T04:25:55;1.73;;;1.63;;
15608;SDS011;64278;45.642;13.756;2023-03-13T04:28:21;1.80;;;1.70;;
15608;SDS011;64278;45.642;13.756;2023-03-13T04:30:47;1.60;;;1.50;;
15608;SDS011;64278;45.642;13.756;2023-03-13T04:33:12;1.65;;;1.52;;
15608;SDS011;64278;45.642;13.756;2023-03-13T04:35:38;1.65;;;1.55;;
15608;SDS011;64278;45.642;13.756;2023-03-13T04:38:04;2.47;;;1.75;;
15608;SDS011;64278;45.642;13.756;2023-03-13T04:40:29;1.90;;;1.80;;
15608;SDS011;64278;45.642;13.756;2023-03-13T04:42:55;1.48;;;1.38;;
15608;SDS011;64278;45.642;13.756;2023-03-13T04:45:20;1.85;;;1.70;;
15608;SDS011;64278;45.642;13.756;2023-03-13T04:47:46;1.80;;;1.70;;
15608;SDS011;64278;45.642;13.756;2023-03-13T04:50:12;1.88;;;1.77;;
15608;SDS011;64278;45.642;13.756;2023-03-13T04:52:37;1.52;;;1.42;;
15608;SDS011;64278;45.642;13.756;2023-03-13T04:55:03;1.58;;;1.48;;
15608;SDS011;64278;45.642;13.756;2023-03-13T04:57:29;2.33;;;1.70;;
15608;SDS011;64278;45.642;13.756;2023-03-13T04:59:55;2.03;;;1.58;;
15608;SDS011;64278;45.642;13.756;2023-03-13T05:02:20;1.75;;;1.65;;
15608;SDS011;64278;45.642;13.756;2023-03-13T05:04:46;1.50;;;1.40;;
15608;SDS011;64278;45.642;13.756;2023-03-13T05:07:12;1.48;;;1.38;;
15608;SDS011;64278;45.642;13.756;2023-03-13T05:09:37;1.70;;;1.60;;
15608;SDS011;64278;45.642;13.756;2023-03-13T05:12:03;1.45;;;1.35;;
15608;SDS011;64278;45.642;13.756;2023-03-13T05:14:29;1.70;;;1.60;;
15608;SDS011;64278;45.642;13.756;2023-03-13T05:16:54;1.77;;;1.67;;
15608;SDS011;64278;45.642;13.756;2023-03-13T05:19:20;1.58;;;1.48;;
15608;SDS011;64278;45.642;13.756;2023-03-13T05:21:46;1.80;;;1.70;;
15608;SDS011;64278;45.642;13.756;2023-03-13T05:24:11;1.52;;;1.42;;
15608;SDS011;64278;45.642;13.756;2023-03-13T05:26:37;2.10;;;2.00;;
15608;SDS011;64278;45.642;13.756;2023-03-13T05:29:02;1.45;;;1.35;;
15608;SDS011;64278;45.642;13.756;2023-03-13T05:31:28;1.73;;;1.63;;
15608;SDS011;64278;45.642;13.756;2023-03-13T05:33:54;1.60;;;1.50;;
15608;SDS011;64278;45.642;13.756;2023-03-13T05:36:19;1.58;;;1.48;;
15608;SDS011;64278;45.642;13.756;2023-03-13T05:38:45;1.80;;;1.70;;
15608;SDS011;64278;45.642;13.756;2023-03-13T05:41:11;1.58;;;1.48;;
15608;SDS011;64278;45.642;13.756;2023-03-13T05:43:36;1.80;;;1.70;;
15608;SDS011;64278;45.642;13.756;2023-03-13T05:46:02;2.22;;;1.75;;
15608;SDS011;64278;45.642;13.756;2023-03-13T05:48:28;2.05;;;1.60;;
15608;SDS011;64278;45.642;13.756;2023-03-13T05:50:53;1.90;;;1.80;;
15608;SDS011;64278;45.642;13.756;2023-03-13T05:53:19;2.40;;;1.80;;
15608;SDS011;64278;45.642;13.756;2023-03-13T05:55:45;1.60;;;1.50;;
15608;SDS011;64278;45.642;13.756;2023-03-13T05:58:10;2.50;;;2.13;;
15608;SDS011;64278;45.642;13.756;2023-03-13T06:00:36;1.88;;;1.77;;
15608;SDS011;64278;45.642;13.756;2023-03-13T06:03:02;1.77;;;1.67;;
15608;SDS011;64278;45.642;13.756;2023-03-13T06:05:27;1.50;;;1.40;;
15608;SDS011;64278;45.642;13.756;2023-03-13T06:07:53;1.73;;;1.63;;
15608;SDS011;64278;45.642;13.756;2023-03-13T06:10:18;1.42;;;1.33;;
15608;SDS011;64278;45.642;13.756;2023-03-13T06:12:50;1.67;;;1.58;;
15608;SDS011;64278;45.642;13.756;2023-03-13T06:15:16;1.73;;;1.63;;
15608;SDS011;64278;45.642;13.756;2023-03-13T06:17:42;2.13;;;1.85;;
15608;SDS011;64278;45.642;13.756;2023-03-13T06:20:08;1.95;;;1.80;;
15608;SDS011;64278;45.642;13.756;2023-03-13T06:22:34;1.58;;;1.48;;
15608;SDS011;64278;45.642;13.756;2023-03-13T06:25:00;1.60;;;1.50;;
15608;SDS011;64278;45.642;13.756;2023-03-13T06:27:25;2.05;;;1.88;;
15608;SDS011;64278;45.642;13.756;2023-03-13T06:29:51;1.98;;;1.77;;
15608;SDS011;64278;45.642;13.756;2023-03-13T06:32:16;1.70;;;1.60;;
15608;SDS011;64278;45.642;13.756;2023-03-13T06:34:42;1.67;;;1.58;;
15608;SDS011;64278;45.642;13.756;2023-03-13T06:37:08;2.10;;;1.90;;
15608;SDS011;64278;45.642;13.756;2023-03-13T06:39:34;1.92;;;1.73;;
15608;SDS011;64278;45.642;13.756;2023-03-13T06:42:00;1.98;;;1.88;;
15608;SDS011;64278;45.642;13.756;2023-03-13T06:44:25;1.85;;;1.75;;
15608;SDS011;64278;45.642;13.756;2023-03-13T06:46:51;1.80;;;1.70;;
15608;SDS011;64278;45.642;13.756;2023-03-13T06:49:17;2.20;;;2.00;;
15608;SDS011;64278;45.642;13.756;2023-03-13T06:51:42;2.00;;;1.90;;
15608;SDS011;64278;45.642;13.756;2023-03-13T06:54:08;1.60;;;1.50;;
15608;SDS011;64278;45.642;13.756;2023-03-13T06:56:34;1.85;;;1.75;;
15608;SDS011;64278;45.642;13.756;2023-03-13T06:58:59;1.50;;;1.40;;
15608;SDS011;64278;45.642;13.756;2023-03-13T07:01:25;2.13;;;1.55;;
15608;SDS011;64278;45.642;13.756;2023-03-13T07:03:50;2.03;;;1.50;;
15608;SDS011;64278;45.642;13.756;2023-03-13T07:06:16;1.80;;;1.70;;
15608;SDS011;64278;45.642;13.756;2023-03-13T07:08:42;1.90;;;1.70;;
15608;SDS011;64278;45.642;13.756;2023-03-13T07:11:09;1.65;;;1.55;;
15608;SDS011;64278;45.642;13.756;2023-03-13T07:13:36;1.70;;;1.60;;
15608;SDS011;64278;45.642;13.756;2023-03-13T07:16:03;2.28;;;1.58;;
15608;SDS011;64278;45.642;13.756;2023-03-13T07:18:30;1.85;;;1.75;;
15608;SDS011;64278;45.642;13.756;2023-03-13T07:20:57;1.88;;;1.77;;
15608;SDS011;64278;45.642;13.756;2023-03-13T07:23:25;1.67;;;1.58;;
15608;SDS011;64278;45.642;13.756;2023-03-13T07:25:55;1.63;;;1.52;;
15608;SDS011;64278;45.642;13.756;2023-03-13T07:28:26;2.22;;;1.88;;
15608;SDS011;64278;45.642;13.756;2023-03-13T07:30:54;1.80;;;1.70;;
15608;SDS011;64278;45.642;13.756;2023-03-13T07:33:27;1.85;;;1.50;;
15608;SDS011;64278;45.642;13.756;2023-03-13T07:35:52;2.38;;;1.90;;
15608;SDS011;64278;45.642;13.756;2023-03-13T07:38:18;2.38;;;1.73;;
15608;SDS011;64278;45.642;13.756;2023-03-13T07:40:51;3.22;;;2.63;;
15608;SDS011;64278;45.642;13.756;2023-03-13T07:43:18;2.40;;;1.90;;
15608;SDS011;64278;45.642;13.756;2023-03-13T07:48:21;2.40;;;2.20;;
15608;SDS011;64278;45.642;13.756;2023-03-13T07:50:48;4.10;;;2.42;;
15608;SDS011;64278;45.642;13.756;2023-03-13T07:53:14;3.65;;;2.40;;
15608;SDS011;64278;45.642;13.756;2023-03-13T07:55:50;3.13;;;2.55;;
15608;SDS011;64278;45.642;13.756;2023-03-13T07:58:37;3.92;;;2.38;;
15608;SDS011;64278;45.642;13.756;2023-03-13T08:01:07;3.60;;;2.63;;
15608;SDS011;64278;45.642;13.756;2023-03-13T08:03:41;3.03;;;2.15;;
15608;SDS011;64278;45.642;13.756;2023-03-13T08:06:10;2.65;;;2.33;;
15608;SDS011;64278;45.642;13.756;2023-03-13T08:08:37;2.47;;;2.28;;
15608;SDS011;64278;45.642;13.756;2023-03-13T08:11:04;3.30;;;2.70;;
15608;SDS011;64278;45.642;13.756;2023-03-13T08:13:32;2.50;;;2.30;;
15608;SDS011;64278;45.642;13.756;2023-03-13T08:16:06;3.08;;;2.70;;
15608;SDS011;64278;45.642;13.756;2023-03-13T08:18:40;2.95;;;2.65;;
15608;SDS011;64278;45.642;13.756;2023-03-13T08:21:09;3.85;;;3.25;;
15608;SDS011;64278;45.642;13.756;2023-03-13T08:23:37;3.05;;;2.42;;
15608;SDS011;64278;45.642;13.756;2023-03-13T08:26:04;5.53;;;3.00;;
15608;SDS011;64278;45.642;13.756;2023-03-13T08:28:31;5.90;;;2.90;;
15608;SDS011;64278;45.642;13.756;2023-03-13T08:30:57;4.40;;;3.08;;
15608;SDS011;64278;45.642;13.756;2023-03-13T08:33:23;3.65;;;2.60;;
15608;SDS011;64278;45.642;13.756;2023-03-13T08:35:49;3.72;;;3.38;;
15608;SDS011;64278;45.642;13.756;2023-03-13T08:38:14;4.05;;;2.50;;
15608;SDS011;64278;45.642;13.756;2023-03-13T08:40:40;3.65;;;2.78;;
15608;SDS011;64278;45.642;13.756;2023-03-13T08:43:06;4.32;;;2.70;;
15608;SDS011;64278;45.642;13.756;2023-03-13T08:45:31;5.55;;;2.90;;
15608;SDS011;64278;45.642;13.756;2023-03-13T08:47:57;3.25;;;2.78;;
15608;SDS011;64278;45.642;13.756;2023-03-13T08:50:23;4.15;;;3.00;;
15608;SDS011;64278;45.642;13.756;2023-03-13T08:52:48;5.03;;;3.60;;
15608;SDS011;64278;45.642;13.756;2023-03-13T08:55:14;3.38;;;2.83;;
15608;SDS011;64278;45.642;13.756;2023-03-13T08:57:40;4.55;;;3.50;;
15608;SDS011;64278;45.642;13.756;2023-03-13T09:00:05;4.30;;;3.17;;
15608;SDS011;64278;45.642;13.756;2023-03-13T09:02:31;4.80;;;3.33;;
15608;SDS011;64278;45.642;13.756;2023-03-13T09:04:57;2.90;;;2.63;;
15608;SDS011;64278;45.642;13.756;2023-03-13T09:07:23;4.45;;;3.22;;
15608;SDS011;64278;45.642;13.756;2023-03-13T09:09:48;3.17;;;2.80;;
15608;SDS011;64278;45.642;13.756;2023-03-13T09:12:14;3.75;;;3.13;;
15608;SDS011;64278;45.642;13.756;2023-03-13T09:14:39;4.95;;;3.03;;
15608;SDS011;64278;45.642;13.756;2023-03-13T09:17:06;3.72;;;2.97;;
15608;SDS011;64278;45.642;13.756;2023-03-13T09:19:32;7.45;;;2.88;;
15608;SDS011;64278;45.642;13.756;2023-03-13T09:21:58;3.05;;;2.75;;
15608;SDS011;64278;45.642;13.756;2023-03-13T09:24:23;4.85;;;3.30;;
15608;SDS011;64278;45.642;13.756;2023-03-13T09:26:49;3.58;;;3.17;;
15608;SDS011;64278;45.642;13.756;2023-03-13T09:29:15;3.85;;;2.92;;
15608;SDS011;64278;45.642;13.756;2023-03-13T09:31:41;4.18;;;2.78;;
15608;SDS011;64278;45.642;13.756;2023-03-13T09:34:06;2.75;;;2.53;;
15608;SDS011;64278;45.642;13.756;2023-03-13T09:36:32;4.70;;;3.35;;
15608;SDS011;64278;45.642;13.756;2023-03-13T09:38:58;4.22;;;2.90;;
15608;SDS011;64278;45.642;13.756;2023-03-13T09:41:33;2.90;;;2.60;;
15608;SDS011;64278;45.642;13.756;2023-03-13T09:44:28;3.33;;;3.03;;
15608;SDS011;64278;45.642;13.756;2023-03-13T09:47:01;5.07;;;3.10;;
15608;SDS011;64278;45.642;13.756;2023-03-13T09:49:50;3.88;;;2.88;;
15608;SDS011;64278;45.642;13.756;2023-03-13T09:52:37;4.45;;;2.97;;
15608;SDS011;64278;45.642;13.756;2023-03-13T09:55:18;3.40;;;3.05;;
15608;SDS011;64278;45.642;13.756;2023-03-13T10:00:26;5.63;;;3.35;;
15608;SDS011;64278;45.642;13.756;2023-03-13T10:03:21;2.95;;;2.75;;
15608;SDS011;64278;45.642;13.756;2023-03-13T10:05:49;4.47;;;3.20;;
15608;SDS011;64278;45.642;13.756;2023-03-13T10:16:08;3.70;;;2.60;;
15608;SDS011;64278;45.642;13.756;2023-03-13T10:18:38;3.35;;;2.90;;
15608;SDS011;64278;45.642;13.756;2023-03-13T10:21:17;2.50;;;2.30;;
15608;SDS011;64278;45.642;13.756;2023-03-13T10:23:47;3.35;;;2.90;;
15608;SDS011;64278;45.642;13.756;2023-03-13T10:26:29;2.70;;;2.50;;
15608;SDS011;64278;45.642;13.756;2023-03-13T10:29:00;2.83;;;2.60;;
15608;SDS011;64278;45.642;13.756;2023-03-13T10:31:40;2.85;;;2.60;;
15608;SDS011;64278;45.642;13.756;2023-03-13T10:34:12;3.78;;;2.70;;
15608;SDS011;64278;45.642;13.756;2023-03-13T10:36:46;2.83;;;2.40;;
15608;SDS011;64278;45.642;13.756;2023-03-13T10:39:18;2.85;;;2.47;;
15608;SDS011;64278;45.642;13.756;2023-03-13T10:41:47;2.90;;;2.28;;
15608;SDS011;64278;45.642;13.756;2023-03-13T10:44:17;2.55;;;2.03;;
15608;SDS011;64278;45.642;13.756;2023-03-13T10:46:46;2.42;;;2.22;;
15608;SDS011;64278;45.642;13.756;2023-03-13T10:49:20;3.15;;;2.55;;
15608;SDS011;64278;45.642;13.756;2023-03-13T10:51:49;2.92;;;2.72;;
15608;SDS011;64278;45.642;13.756;2023-03-13T10:54:32;1.92;;;1.80;;
15608;SDS011;64278;45.642;13.756;2023-03-13T10:57:08;5.25;;;3.00;;
15608;SDS011;64278;45.642;13.756;2023-03-13T10:59:45;2.45;;;2.05;;
15608;SDS011;64278;45.642;13.756;2023-03-13T11:02:24;3.22;;;2.88;;
15608;SDS011;64278;45.642;13.756;2023-03-13T11:04:54;3.10;;;2.80;;
15608;SDS011;64278;45.642;13.756;2023-03-13T11:07:54;3.08;;;2.88;;
15608;SDS011;64278;45.642;13.756;2023-03-13T11:55:55;2.33;;;2.00;;
15608;SDS011;64278;45.642;13.756;2023-03-13T12:01:13;1.70;;;1.60;;
15608;SDS011;64278;45.642;13.756;2023-03-13T12:03:58;1.80;;;1.70;;
15608;SDS011;64278;45.642;13.756;2023-03-13T12:06:53;2.38;;;1.63;;
15608;SDS011;64278;45.642;13.756;2023-03-13T12:12:02;2.08;;;1.70;;
15608;SDS011;64278;45.642;13.756;2023-03-13T12:17:48;2.15;;;1.80;;
15608;SDS011;64278;45.642;13.756;2023-03-13T12:20:23;1.52;;;1.35;;
15608;SDS011;64278;45.642;13.756;2023-03-13T12:28:50;1.50;;;1.40;;
15608;SDS011;64278;45.642;13.756;2023-03-13T12:31:24;2.00;;;1.65;;
15608;SDS011;64278;45.642;13.756;2023-03-13T12:33:58;1.60;;;1.50;;
15608;SDS011;64278;45.642;13.756;2023-03-13T12:36:50;1.73;;;1.63;;
15608;SDS011;64278;45.642;13.756;2023-03-13T12:39:29;1.73;;;1.63;;
15608;SDS011;64278;45.642;13.756;2023-03-13T12:44:42;2.13;;;1.60;;
15608;SDS011;64278;45.642;13.756;2023-03-13T12:47:09;1.50;;;1.40;;
15608;SDS011;64278;45.642;13.756;2023-03-13T13:00:34;1.85;;;1.70;;
15608;SDS011;64278;45.642;13.756;2023-03-13T13:03:06;1.55;;;1.45;;
15608;SDS011;64278;45.642;13.756;2023-03-13T13:06:02;1.70;;;1.60;;
15608;SDS011;64278;45.642;13.756;2023-03-13T13:08:42;1.50;;;1.40;;
15608;SDS011;64278;45.642;13.756;2023-03-13T13:16:37;1.35;;;1.27;;
15608;SDS011;64278;45.642;13.756;2023-03-13T13:24:51;1.58;;;1.48;;
15608;SDS011;64278;45.642;13.756;2023-03-13T13:32:32;1.48;;;1.38;;
15608;SDS011;64278;45.642;13.756;2023-03-13T13:37:40;1.65;;;1.15;;
15608;SDS011;64278;45.642;13.756;2023-03-13T13:42:53;1.60;;;1.50;;
15608;SDS011;64278;45.642;13.756;2023-03-13T13:45:35;6.90;;;5.32;;
15608;SDS011;64278;45.642;13.756;2023-03-13T13:53:45;32.47;;;23.63;;
15608;SDS011;64278;45.642;13.756;2023-03-13T14:01:41;35.95;;;27.50;;
15608;SDS011;64278;45.642;13.756;2023-03-13T14:04:27;36.05;;;27.67;;
15608;SDS011;64278;45.642;13.756;2023-03-13T14:13:01;36.65;;;25.00;;
15608;SDS011;64278;45.642;13.756;2023-03-13T14:15:34;31.13;;;23.65;;
15608;SDS011;64278;45.642;13.756;2023-03-13T14:18:10;28.42;;;23.65;;
15608;SDS011;64278;45.642;13.756;2023-03-13T14:20:38;28.20;;;21.30;;
15608;SDS011;64278;45.642;13.756;2023-03-13T14:23:16;27.15;;;20.58;;
15608;SDS011;64278;45.642;13.756;2023-03-13T14:28:42;25.75;;;20.13;;
15608;SDS011;64278;45.642;13.756;2023-03-13T14:31:35;22.10;;;18.88;;
15608;SDS011;64278;45.642;13.756;2023-03-13T14:34:03;24.75;;;18.30;;
15608;SDS011;64278;45.642;13.756;2023-03-13T14:36:50;20.65;;;18.48;;
15608;SDS011;64278;45.642;13.756;2023-03-13T14:42:04;19.40;;;16.30;;
15608;SDS011;64278;45.642;13.756;2023-03-13T14:44:31;21.60;;;16.88;;
15608;SDS011;64278;45.642;13.756;2023-03-13T14:46:59;20.50;;;15.50;;
15608;SDS011;64278;45.642;13.756;2023-03-13T14:49:29;18.00;;;14.80;;
15608;SDS011;64278;45.642;13.756;2023-03-13T14:52:03;18.98;;;15.23;;
15608;SDS011;64278;45.642;13.756;2023-03-13T14:54:51;18.90;;;13.90;;
15608;SDS011;64278;45.642;13.756;2023-03-13T14:57:18;16.15;;;13.15;;
15608;SDS011;64278;45.642;13.756;2023-03-13T14:59:47;17.15;;;12.43;;
15608;SDS011;64278;45.642;13.756;2023-03-13T15:07:38;13.25;;;11.55;;
15608;SDS011;64278;45.642;13.756;2023-03-13T15:12:55;15.93;;;11.35;;
15608;SDS011;64278;45.642;13.756;2023-03-13T15:15:21;12.00;;;10.43;;
15608;SDS011;64278;45.642;13.756;2023-03-13T15:17:47;15.90;;;10.10;;
15608;SDS011;64278;45.642;13.756;2023-03-13T15:20:13;14.20;;;9.98;;
15608;SDS011;64278;45.642;13.756;2023-03-13T15:22:40;12.65;;;9.07;;
15608;SDS011;64278;45.642;13.756;2023-03-13T15:25:17;11.60;;;9.48;;
15608;SDS011;64278;45.642;13.756;2023-03-13T15:27:45;11.38;;;9.27;;
15608;SDS011;64278;45.642;13.756;2023-03-13T15:30:17;12.07;;;8.63;;
15608;SDS011;64278;45.642;13.756;2023-03-13T15:32:47;11.35;;;8.30;;
15608;SDS011;64278;45.642;13.756;2023-03-13T15:35:26;10.77;;;8.18;;
15608;SDS011;64278;45.642;13.756;2023-03-13T15:37:54;12.45;;;8.00;;
15608;SDS011;64278;45.642;13.756;2023-03-13T15:40:21;10.93;;;7.88;;
15608;SDS011;64278;45.642;13.756;2023-03-13T15:42:48;10.07;;;6.75;;
15608;SDS011;64278;45.642;13.756;2023-03-13T15:45:14;9.55;;;6.40;;
15608;SDS011;64278;45.642;13.756;2023-03-13T15:47:40;10.13;;;6.35;;
15608;SDS011;64278;45.642;13.756;2023-03-13T15:50:09;7.38;;;6.18;;
15608;SDS011;64278;45.642;13.756;2023-03-13T15:52:37;8.20;;;5.65;;
15608;SDS011;64278;45.642;13.756;2023-03-13T15:55:03;8.02;;;6.20;;
15608;SDS011;64278;45.642;13.756;2023-03-13T15:57:31;7.22;;;5.65;;
15608;SDS011;64278;45.642;13.756;2023-03-13T15:59:57;7.43;;;5.97;;
15608;SDS011;64278;45.642;13.756;2023-03-13T16:02:23;7.47;;;5.03;;
15608;SDS011;64278;45.642;13.756;2023-03-13T16:04:49;9.57;;;5.38;;
15608;SDS011;64278;45.642;13.756;2023-03-13T16:07:16;9.68;;;5.28;;
15608;SDS011;64278;45.642;13.756;2023-03-13T16:09:46;6.18;;;4.57;;
15608;SDS011;64278;45.642;13.756;2023-03-13T16:12:12;6.78;;;4.95;;
15608;SDS011;64278;45.642;13.756;2023-03-13T16:14:38;5.35;;;4.13;;
15608;SDS011;64278;45.642;13.756;2023-03-13T16:19:56;5.43;;;4.00;;
15608;SDS011;64278;45.642;13.756;2023-03-13T16:22:22;6.82;;;4.47;;
15608;SDS011;64278;45.642;13.756;2023-03-13T16:24:48;4.88;;;4.03;;
15608;SDS011;64278;45.642;13.756;2023-03-13T16:27:14;4.85;;;4.05;;
15608;SDS011;64278;45.642;13.756;2023-03-13T16:29:41;5.82;;;4.55;;
15608;SDS011;64278;45.642;13.756;2023-03-13T16:32:11;4.40;;;3.70;;
15608;SDS011;64278;45.642;13.756;2023-03-13T16:34:39;4.82;;;4.07;;
15608;SDS011;64278;45.642;13.756;2023-03-13T16:37:12;5.50;;;3.92;;
15608;SDS011;64278;45.642;13.756;2023-03-13T16:39:39;4.18;;;3.75;;
15608;SDS011;64278;45.642;13.756;2023-03-13T16:42:05;5.93;;;3.70;;
15608;SDS011;64278;45.642;13.756;2023-03-13T16:44:32;4.90;;;3.47;;
15608;SDS011;64278;45.642;13.756;2023-03-13T16:46:57;5.03;;;3.50;;
15608;SDS011;64278;45.642;13.756;2023-03-13T16:49:23;4.00;;;3.53;;
15608;SDS011;64278;45.642;13.756;2023-03-13T16:51:49;4.80;;;3.65;;
15608;SDS011;64278;45.642;13.756;2023-03-13T16:54:14;4.18;;;3.50;;
15608;SDS011;64278;45.642;13.756;2023-03-13T16:56:42;5.38;;;3.20;;
15608;SDS011;64278;45.642;13.756;2023-03-13T16:59:15;4.00;;;3.28;;
15608;SDS011;64278;45.642;13.756;2023-03-13T17:01:45;4.78;;;3.30;;
15608;SDS011;64278;45.642;13.756;2023-03-13T17:04:11;3.72;;;3.38;;
15608;SDS011;64278;45.642;13.756;2023-03-13T17:06:37;5.55;;;3.40;;
15608;SDS011;64278;45.642;13.756;2023-03-13T17:09:10;4.18;;;3.40;;
15608;SDS011;64278;45.642;13.756;2023-03-13T17:11:37;4.30;;;3.17;;
15608;SDS011;64278;45.642;13.756;2023-03-13T17:14:03;4.20;;;2.85;;
15608;SDS011;64278;45.642;13.756;2023-03-13T17:16:32;5.00;;;3.05;;